createdAt,value
2023-03-29T00:02:30.721Z,4.31
2023-03-29T00:04:58.422Z,4.26
2023-03-29T00:07:26.629Z,4.26
2023-03-29T00:09:53.761Z,4.28
2023-03-29T00:12:20.880Z,4.25
2023-03-29T00:14:48.236Z,4.28
2023-03-29T00:17:15.702Z,4.28
2023-03-29T00:19:46.875Z,4.31
2023-03-29T00:22:14.311Z,4.48
2023-03-29T00:24:41.509Z,4.43
2023-03-29T00:27:08.669Z,4.36
2023-03-29T00:29:35.875Z,4.34
2023-03-29T00:32:03.006Z,4.36
2023-03-29T00:34:32.845Z,4.28
2023-03-29T00:36:59.998Z,4.13
2023-03-29T00:39:28.621Z,4.00
2023-03-29T00:41:56.081Z,3.87
2023-03-29T00:44:58.987Z,3.77
2023-03-29T00:47:55.900Z,3.89
2023-03-29T00:50:31.214Z,3.93
2023-03-29T00:53:03.861Z,3.83
2023-03-29T00:55:43.193Z,4.06
2023-03-29T00:58:14.606Z,4.14
2023-03-29T01:00:52.449Z,4.21
2023-03-29T01:03:27.721Z,4.04
2023-03-29T01:06:00.972Z,4.25
2023-03-29T01:08:35.185Z,3.96
2023-03-29T01:11:31.224Z,3.95
2023-03-29T01:14:04.096Z,3.94
2023-03-29T01:16:35.355Z,4.11
2023-03-29T01:19:02.868Z,4.06
2023-03-29T01:21:51.920Z,3.98
2023-03-29T01:24:34.243Z,4.18
2023-03-29T01:27:11.656Z,3.84
2023-03-29T01:29:50.540Z,3.92
2023-03-29T01:32:23.654Z,3.52
2023-03-29T01:35:12.007Z,3.49
2023-03-29T01:37:58.717Z,3.57
2023-03-29T01:40:28.453Z,3.50
2023-03-29T01:43:28.246Z,3.43
2023-03-29T01:46:05.461Z,3.48
2023-03-29T01:48:57.024Z,3.49
2023-03-29T01:51:42.178Z,3.47
2023-03-29T01:54:16.593Z,3.49
2023-03-29T01:56:45.859Z,3.49
2023-03-29T01:59:22.918Z,3.53
2023-03-29T02:01:54.714Z,3.57
2023-03-29T02:04:30.254Z,3.58
2023-03-29T02:06:59.752Z,3.55
2023-03-29T02:09:29.753Z,3.59
2023-03-29T02:12:01.261Z,3.58
2023-03-29T02:14:30.791Z,3.59
2023-03-29T02:17:15.374Z,3.58
2023-03-29T02:19:43.748Z,3.52
2023-03-29T02:22:11.179Z,3.58
2023-03-29T02:24:41.101Z,3.55
2023-03-29T02:27:08.718Z,3.60
2023-03-29T02:29:36.034Z,3.64
2023-03-29T02:32:21.631Z,3.73
2023-03-29T02:34:59.066Z,3.63
2023-03-29T02:37:30.619Z,3.65
2023-03-29T02:39:59.321Z,3.69
2023-03-29T02:42:28.181Z,3.84
2023-03-29T02:44:59.152Z,3.81
2023-03-29T02:47:33.256Z,3.82
2023-03-29T02:50:00.794Z,3.74
2023-03-29T02:52:34.456Z,3.73
2023-03-29T02:55:06.008Z,3.79
2023-03-29T02:57:33.511Z,3.83
2023-03-29T03:00:01.397Z,3.91
2023-03-29T03:02:30.493Z,3.81
2023-03-29T03:04:58.035Z,3.88
2023-03-29T03:07:25.546Z,3.99
2023-03-29T03:09:53.251Z,3.91
2023-03-29T03:12:20.746Z,4.05
2023-03-29T03:14:48.596Z,3.99
2023-03-29T03:17:19.268Z,3.98
2023-03-29T03:19:47.738Z,3.85
2023-03-29T03:22:15.550Z,3.87
2023-03-29T03:24:43.485Z,3.96
2023-03-29T03:27:12.075Z,3.94
2023-03-29T03:29:39.767Z,3.88
2023-03-29T03:32:25.694Z,3.81
2023-03-29T03:35:12.436Z,3.91
2023-03-29T03:37:41.208Z,3.84
2023-03-29T03:40:09.690Z,3.84
2023-03-29T03:42:37.863Z,3.81
2023-03-29T03:45:06.210Z,3.86
2023-03-29T03:48:10.175Z,3.88
2023-03-29T03:50:57.292Z,3.97
2023-03-29T03:53:28.120Z,3.97
2023-03-29T03:56:14.206Z,4.10
2023-03-29T03:59:07.930Z,4.08
2023-03-29T04:01:48.043Z,4.05
2023-03-29T04:04:20.333Z,3.97
2023-03-29T04:07:13.337Z,4.03
2023-03-29T04:09:57.298Z,3.94
2023-03-29T04:12:47.507Z,3.88
2023-03-29T04:15:18.306Z,3.86
2023-03-29T04:17:52.135Z,3.92
2023-03-29T04:20:26.642Z,3.85
2023-03-29T04:22:54.528Z,3.92
2023-03-29T04:25:22.633Z,4.00
2023-03-29T04:28:12.347Z,3.91
2023-03-29T04:30:49.310Z,3.93
2023-03-29T04:33:41.685Z,3.88
2023-03-29T04:36:09.910Z,3.91
2023-03-29T04:38:38.165Z,3.85
2023-03-29T04:41:05.807Z,3.92
2023-03-29T04:44:08.715Z,3.85
2023-03-29T04:46:36.142Z,3.76
2023-03-29T04:49:20.468Z,3.86
2023-03-29T04:51:51.209Z,3.89
2023-03-29T04:54:21.922Z,4.02
2023-03-29T04:57:14.950Z,4.06
2023-03-29T04:59:54.890Z,3.99
2023-03-29T05:02:58.550Z,4.20
2023-03-29T05:05:28.090Z,4.20
2023-03-29T05:07:57.037Z,4.19
2023-03-29T05:10:32.063Z,4.12
2023-03-29T05:12:59.673Z,4.19
2023-03-29T05:15:27.772Z,4.26
2023-03-29T05:17:55.958Z,4.19
2023-03-29T05:20:23.549Z,4.17
2023-03-29T05:22:50.885Z,4.20
2023-03-29T05:25:37.931Z,4.31
2023-03-29T05:28:05.137Z,4.41
2023-03-29T05:30:32.625Z,4.39
2023-03-29T05:33:08.303Z,4.54
2023-03-29T05:35:36.291Z,4.64
2023-03-29T05:38:06.992Z,4.59
2023-03-29T05:40:36.075Z,4.68
2023-03-29T05:43:23.751Z,4.75
2023-03-29T05:45:56.770Z,4.70
2023-03-29T05:48:25.189Z,4.87
2023-03-29T05:50:54.856Z,4.80
2023-03-29T05:53:23.959Z,4.87
2023-03-29T05:55:51.882Z,4.94
2023-03-29T05:58:21.876Z,4.85
2023-03-29T06:00:50.474Z,4.65
2023-03-29T06:03:37.125Z,4.67
2023-03-29T06:06:05.459Z,4.69
2023-03-29T06:08:35.428Z,4.88
2023-03-29T06:11:13.788Z,4.87
2023-03-29T06:14:07.044Z,4.88
2023-03-29T06:16:39.636Z,4.90
2023-03-29T06:19:08.991Z,5.00
2023-03-29T06:21:37.440Z,5.13
2023-03-29T06:24:07.147Z,5.12
2023-03-29T06:26:39.718Z,5.32
2023-03-29T06:29:07.088Z,5.09
2023-03-29T06:31:36.524Z,5.14
2023-03-29T06:34:05.190Z,5.00
2023-03-29T06:36:55.318Z,5.08
2023-03-29T06:39:22.791Z,4.99
2023-03-29T06:41:53.303Z,5.15
2023-03-29T06:44:33.013Z,5.34
2023-03-29T06:47:07.751Z,5.26
2023-03-29T06:49:35.129Z,5.32
2023-03-29T06:52:11.569Z,5.44
2023-03-29T06:54:39.205Z,5.75
2023-03-29T06:57:06.337Z,5.60
2023-03-29T06:59:35.144Z,5.52
2023-03-29T07:02:23.012Z,5.41
2023-03-29T07:04:56.588Z,5.56
2023-03-29T07:07:53.864Z,5.51
2023-03-29T07:10:47.767Z,5.57
2023-03-29T07:13:44.523Z,5.71
2023-03-29T07:16:15.096Z,5.74
2023-03-29T07:18:49.509Z,5.83
2023-03-29T07:21:31.203Z,5.87
2023-03-29T07:23:58.685Z,5.84
2023-03-29T07:26:28.890Z,5.71
2023-03-29T07:28:59.126Z,5.91
2023-03-29T07:31:26.370Z,5.91
2023-03-29T07:34:12.380Z,6.22
2023-03-29T07:36:40.065Z,6.09
2023-03-29T07:39:09.430Z,5.94
2023-03-29T07:41:39.030Z,5.97
2023-03-29T07:44:12.299Z,6.14
2023-03-29T07:46:39.548Z,6.14
2023-03-29T07:49:08.463Z,6.02
2023-03-29T07:51:37.020Z,6.15
2023-03-29T07:54:08.937Z,6.28
2023-03-29T07:56:42.688Z,6.26
2023-03-29T07:59:18.376Z,6.38
2023-03-29T08:01:51.045Z,6.25
2023-03-29T08:04:25.754Z,6.34
2023-03-29T08:07:10.881Z,6.39
2023-03-29T08:09:58.331Z,6.64
2023-03-29T08:12:53.946Z,6.77
2023-03-29T08:15:28.418Z,6.86
2023-03-29T08:17:56.115Z,7.09
2023-03-29T08:20:23.456Z,7.34
2023-03-29T08:22:55.330Z,7.11
2023-03-29T08:25:42.728Z,7.31
2023-03-29T08:28:10.597Z,7.33
2023-03-29T08:30:45.158Z,7.43
2023-03-29T08:33:12.547Z,7.23
2023-03-29T08:35:39.928Z,7.30
2023-03-29T08:38:17.057Z,7.55
2023-03-29T08:40:56.667Z,7.55
2023-03-29T08:43:31.844Z,7.40
2023-03-29T08:46:39.939Z,7.72
2023-03-29T08:49:35.607Z,7.71
2023-03-29T08:52:14.569Z,8.04
2023-03-29T08:54:48.985Z,7.99
2023-03-29T08:57:37.068Z,8.30
2023-03-29T09:00:21.461Z,8.52
2023-03-29T09:02:54.159Z,8.53
2023-03-29T09:05:32.315Z,8.63
2023-03-29T09:08:19.220Z,9.05
2023-03-29T09:11:20.702Z,9.32
2023-03-29T09:13:57.276Z,9.48
2023-03-29T09:16:45.361Z,9.49
2023-03-29T09:19:27.464Z,9.26
2023-03-29T09:22:20.115Z,9.56
2023-03-29T09:25:24.269Z,9.19
2023-03-29T09:28:03.929Z,9.59
2023-03-29T09:30:53.780Z,9.74
2023-03-29T09:33:33.030Z,10.12
2023-03-29T09:36:31.172Z,10.09
2023-03-29T09:38:59.392Z,9.94
2023-03-29T09:41:44.200Z,10.46
2023-03-29T09:44:30.103Z,10.22
2023-03-29T09:47:17.762Z,10.16
2023-03-29T09:49:50.052Z,10.26
2023-03-29T09:52:21.355Z,10.59
2023-03-29T09:55:04.174Z,10.40
2023-03-29T09:57:52.614Z,10.75
2023-03-29T10:00:23.229Z,10.61
2023-03-29T10:02:56.054Z,10.90
2023-03-29T10:05:36.979Z,10.93
2023-03-29T10:08:19.945Z,11.24
2023-03-29T10:10:50.424Z,10.94
2023-03-29T10:13:28.831Z,11.01
2023-03-29T10:16:08.840Z,11.38
2023-03-29T10:18:43.938Z,11.08
2023-03-29T10:21:22.549Z,11.22
2023-03-29T10:23:57.130Z,11.94
2023-03-29T10:26:33.290Z,11.95
2023-03-29T10:29:08.176Z,12.46
2023-03-29T10:31:41.980Z,12.22
2023-03-29T10:34:18.893Z,12.47
2023-03-29T10:37:00.929Z,12.07
2023-03-29T10:39:33.285Z,12.53
2023-03-29T10:42:04.804Z,12.56
2023-03-29T10:44:37.612Z,11.88
2023-03-29T10:47:18.265Z,11.78
2023-03-29T10:49:51.059Z,11.92
2023-03-29T10:52:19.163Z,12.12
2023-03-29T10:54:47.940Z,12.72
2023-03-29T10:57:46.082Z,13.20
2023-03-29T11:00:33.688Z,12.77
2023-03-29T11:03:35.639Z,13.04
2023-03-29T11:06:23.704Z,13.45
2023-03-29T11:08:59.992Z,14.01
2023-03-29T11:12:14.869Z,13.66
2023-03-29T11:14:52.862Z,13.11
2023-03-29T11:17:34.270Z,13.03
2023-03-29T11:20:04.442Z,13.13
2023-03-29T11:22:47.914Z,13.14
2023-03-29T11:25:27.183Z,13.26
2023-03-29T11:28:32.483Z,13.18
2023-03-29T11:31:45.292Z,13.80
2023-03-29T11:34:25.149Z,14.77
2023-03-29T11:37:21.387Z,15.35
2023-03-29T11:40:07.412Z,15.70
2023-03-29T11:42:40.848Z,15.76
2023-03-29T11:45:16.576Z,16.17
2023-03-29T11:47:46.512Z,16.44
2023-03-29T11:50:29.595Z,16.71
2023-03-29T11:53:10.381Z,17.17
2023-03-29T11:55:40.388Z,16.28
2023-03-29T11:58:29.471Z,15.48
2023-03-29T12:01:20.328Z,15.19
2023-03-29T12:03:56.370Z,15.09
2023-03-29T12:06:32.259Z,15.79
2023-03-29T12:09:14.856Z,14.92
2023-03-29T12:12:14.888Z,15.11
2023-03-29T12:15:00.653Z,14.81
2023-03-29T12:17:33.409Z,14.73
2023-03-29T12:20:18.639Z,14.30
2023-03-29T12:22:51.347Z,14.44
2023-03-29T12:25:28.682Z,14.15
2023-03-29T12:28:02.155Z,14.07
2023-03-29T12:30:43.924Z,13.95
2023-03-29T12:33:22.962Z,13.72
2023-03-29T12:37:01.382Z,13.85
2023-03-29T12:39:55.394Z,14.33
2023-03-29T12:43:05.606Z,14.06
2023-03-29T12:46:06.221Z,14.87
2023-03-29T12:48:35.763Z,14.87
2023-03-29T12:51:13.829Z,14.94
2023-03-29T12:53:46.337Z,15.22
2023-03-29T12:56:36.711Z,15.77
2023-03-29T12:59:22.327Z,15.06
2023-03-29T13:02:04.574Z,15.25
2023-03-29T13:04:51.455Z,15.45
2023-03-29T13:07:26.700Z,15.04
2023-03-29T13:10:01.814Z,15.27
2023-03-29T13:12:37.739Z,15.73
2023-03-29T13:15:08.271Z,16.11
2023-03-29T13:18:02.000Z,15.93
2023-03-29T13:20:57.233Z,15.86
2023-03-29T13:24:03.441Z,16.33
2023-03-29T13:26:51.863Z,16.96
2023-03-29T13:29:49.163Z,16.48
2023-03-29T13:32:47.482Z,15.97
2023-03-29T13:35:28.242Z,16.00
2023-03-29T13:38:33.332Z,15.95
2023-03-29T13:41:10.438Z,15.58
2023-03-29T13:43:53.720Z,15.17
2023-03-29T13:46:37.745Z,14.58
2023-03-29T13:49:16.538Z,15.13
2023-03-29T13:51:57.263Z,14.98
2023-03-29T13:54:35.452Z,14.81
2023-03-29T13:57:21.892Z,14.72
2023-03-29T14:00:19.525Z,15.24
2023-03-29T14:02:58.313Z,16.03
2023-03-29T14:05:34.808Z,14.76
2023-03-29T14:08:16.620Z,14.08
2023-03-29T14:10:45.740Z,13.84
2023-03-29T14:13:24.861Z,14.00
2023-03-29T14:15:59.775Z,14.45
2023-03-29T14:18:38.132Z,14.87
2023-03-29T14:21:19.456Z,15.47
2023-03-29T14:23:54.232Z,16.01
2023-03-29T14:26:24.618Z,15.97
2023-03-29T14:29:02.590Z,15.68
2023-03-29T14:31:40.322Z,16.08
2023-03-29T14:34:16.292Z,15.88
2023-03-29T14:36:49.565Z,15.57
2023-03-29T14:39:19.592Z,15.88
2023-03-29T14:41:52.524Z,15.82
2023-03-29T14:44:25.994Z,15.89
2023-03-29T14:46:54.084Z,15.96
2023-03-29T14:49:23.501Z,16.63
2023-03-29T14:51:52.096Z,16.01
2023-03-29T14:54:34.627Z,16.16
2023-03-29T14:57:08.619Z,16.20
2023-03-29T14:59:42.532Z,15.94
2023-03-29T15:02:30.485Z,15.73
2023-03-29T15:05:25.701Z,15.83
2023-03-29T15:07:57.610Z,15.48
2023-03-29T15:10:27.583Z,15.70
2023-03-29T15:12:56.368Z,15.98
2023-03-29T15:15:26.376Z,16.27
2023-03-29T15:17:54.141Z,15.80
2023-03-29T15:20:35.104Z,16.10
2023-03-29T15:23:18.165Z,15.92
2023-03-29T15:25:59.083Z,16.18
2023-03-29T15:28:33.078Z,15.97
2023-03-29T15:31:18.316Z,15.72
2023-03-29T15:33:47.261Z,16.26
2023-03-29T15:36:20.532Z,16.40
2023-03-29T15:38:50.293Z,16.60
2023-03-29T15:41:17.732Z,16.61
2023-03-29T15:43:45.179Z,16.46
2023-03-29T15:46:15.458Z,16.86
2023-03-29T15:48:54.788Z,16.07
2023-03-29T15:51:22.294Z,16.29
2023-03-29T15:53:51.982Z,15.96
2023-03-29T15:56:21.496Z,15.39
2023-03-29T15:58:49.512Z,14.16
2023-03-29T16:01:34.292Z,14.14
2023-03-29T16:04:12.655Z,14.12
2023-03-29T16:06:40.976Z,13.89
2023-03-29T16:09:09.115Z,13.70
2023-03-29T16:11:36.427Z,13.46
2023-03-29T16:14:07.081Z,13.12
2023-03-29T16:16:35.348Z,13.44
2023-03-29T16:19:02.603Z,13.66
2023-03-29T16:21:29.951Z,14.11
2023-03-29T16:23:59.540Z,14.31
2023-03-29T16:26:32.032Z,14.58
2023-03-29T16:29:01.843Z,14.81
2023-03-29T16:31:31.451Z,14.48
2023-03-29T16:33:58.755Z,14.08
2023-03-29T16:36:26.538Z,14.30
2023-03-29T16:38:53.878Z,13.82
2023-03-29T16:41:21.887Z,13.05
2023-03-29T16:43:49.120Z,11.76
2023-03-29T16:46:16.369Z,11.48
2023-03-29T16:48:43.686Z,11.29
2023-03-29T16:51:11.190Z,11.22
2023-03-29T16:53:38.542Z,11.20
2023-03-29T16:56:06.272Z,11.25
2023-03-29T16:58:33.490Z,11.13
2023-03-29T17:01:10.002Z,11.02
2023-03-29T17:03:37.733Z,11.01
2023-03-29T17:06:06.173Z,10.92
2023-03-29T17:08:33.650Z,10.99
2023-03-29T17:11:01.697Z,10.94
2023-03-29T17:13:30.023Z,10.93
2023-03-29T17:15:58.038Z,10.89
2023-03-29T17:18:26.798Z,10.83
2023-03-29T17:20:57.528Z,10.87
2023-03-29T17:23:25.022Z,10.83
2023-03-29T17:25:54.889Z,10.60
2023-03-29T17:28:22.898Z,10.62
2023-03-29T17:30:50.333Z,10.58
2023-03-29T17:33:19.087Z,10.65
2023-03-29T17:35:48.827Z,10.49
2023-03-29T17:38:16.180Z,10.48
2023-03-29T17:40:43.461Z,10.46
2023-03-29T17:43:10.644Z,10.43
2023-03-29T17:45:37.817Z,10.14
2023-03-29T17:48:06.379Z,9.99
2023-03-29T17:50:34.614Z,9.88
2023-03-29T17:53:01.708Z,9.83
2023-03-29T17:55:28.862Z,9.81
2023-03-29T17:57:56.638Z,9.76
2023-03-29T18:00:23.989Z,9.77
2023-03-29T18:02:51.700Z,9.60
2023-03-29T18:05:18.979Z,9.49
2023-03-29T18:07:46.752Z,9.48
2023-03-29T18:10:13.944Z,9.52
2023-03-29T18:12:41.456Z,9.40
2023-03-29T18:15:09.427Z,9.41
2023-03-29T18:17:36.951Z,9.31
2023-03-29T18:20:11.977Z,9.24
2023-03-29T18:22:42.105Z,9.18
2023-03-29T18:25:10.419Z,9.23
2023-03-29T18:27:39.845Z,9.50
2023-03-29T18:30:08.888Z,9.69
2023-03-29T18:32:37.069Z,9.72
2023-03-29T18:35:05.548Z,9.70
2023-03-29T18:37:33.157Z,9.60
2023-03-29T18:40:00.602Z,9.75
2023-03-29T18:42:28.076Z,9.81
2023-03-29T18:44:55.881Z,9.80
2023-03-29T18:47:22.940Z,9.87
2023-03-29T18:49:53.465Z,9.81
2023-03-29T18:52:20.615Z,9.81
2023-03-29T18:54:48.100Z,9.82
2023-03-29T18:57:15.408Z,9.84
2023-03-29T18:59:42.784Z,9.75
2023-03-29T19:02:10.366Z,9.81
2023-03-29T19:04:37.476Z,9.85
2023-03-29T19:09:50.234Z,9.82
2023-03-29T19:12:17.357Z,9.81
2023-03-29T19:14:44.971Z,9.77
2023-03-29T19:17:12.116Z,9.70
2023-03-29T19:19:39.263Z,9.58
2023-03-29T19:22:06.820Z,9.37
2023-03-29T19:24:33.967Z,9.29
2023-03-29T19:27:02.090Z,9.32
2023-03-29T19:29:29.316Z,9.10
2023-03-29T19:31:57.495Z,9.17
2023-03-29T19:34:24.915Z,9.08
2023-03-29T19:36:53.725Z,8.99
2023-03-29T19:39:22.438Z,8.98
2023-03-29T19:41:49.615Z,9.00
2023-03-29T19:44:16.913Z,8.98
2023-03-29T19:46:44.314Z,8.89
2023-03-29T19:49:13.930Z,8.88
2023-03-29T19:51:42.492Z,8.79
2023-03-29T19:54:13.172Z,8.67
2023-03-29T19:56:41.010Z,8.63
2023-03-29T19:59:11.314Z,8.60
2023-03-29T20:01:39.680Z,8.52
2023-03-29T20:04:07.089Z,8.44
2023-03-29T20:06:34.631Z,8.37
2023-03-29T20:09:02.318Z,8.28
2023-03-29T20:11:29.687Z,8.23
2023-03-29T20:13:57.684Z,8.15
2023-03-29T20:16:26.344Z,8.04
2023-03-29T20:18:54.312Z,7.98
2023-03-29T20:21:21.441Z,7.94
2023-03-29T20:23:48.599Z,7.99
2023-03-29T20:26:15.670Z,7.95
2023-03-29T20:28:42.977Z,7.88
2023-03-29T20:31:13.754Z,7.82
2023-03-29T20:33:41.845Z,7.79
2023-03-29T20:36:16.691Z,7.77
2023-03-29T20:38:45.455Z,7.78
2023-03-29T20:41:14.302Z,7.77
2023-03-29T20:43:47.185Z,7.68
2023-03-29T20:46:24.247Z,7.60
2023-03-29T20:48:54.776Z,7.57
2023-03-29T20:51:28.433Z,7.57
2023-03-29T20:54:02.841Z,7.40
2023-03-29T20:56:33.825Z,7.04
2023-03-29T20:59:01.440Z,7.16
2023-03-29T21:01:30.556Z,7.13
2023-03-29T21:03:57.990Z,7.19
2023-03-29T21:06:25.304Z,7.19
2023-03-29T21:08:52.942Z,7.14
2023-03-29T21:11:25.182Z,7.13
2023-03-29T21:14:03.022Z,7.10
2023-03-29T21:16:32.332Z,7.08
2023-03-29T21:19:01.930Z,7.02
2023-03-29T21:21:36.329Z,6.93
2023-03-29T21:24:06.081Z,6.77
2023-03-29T21:26:33.669Z,6.69
2023-03-29T21:29:01.581Z,6.61
2023-03-29T21:31:28.878Z,6.51
2023-03-29T21:34:01.363Z,6.51
2023-03-29T21:36:28.682Z,6.42
2023-03-29T21:38:56.268Z,6.46
2023-03-29T21:41:23.559Z,6.47
2023-03-29T21:43:58.241Z,6.44
2023-03-29T21:46:30.859Z,6.38
2023-03-29T21:48:58.496Z,6.39
2023-03-29T21:51:29.127Z,6.42
2023-03-29T21:53:56.790Z,6.37
2023-03-29T21:56:23.874Z,6.32
2023-03-29T21:58:51.763Z,6.32
2023-03-29T22:01:18.857Z,6.31
2023-03-29T22:03:46.996Z,6.27
2023-03-29T22:06:15.700Z,6.22
2023-03-29T22:08:42.990Z,6.19
2023-03-29T22:11:20.471Z,6.16
2023-03-29T22:13:52.366Z,6.13
2023-03-29T22:16:26.307Z,6.09
2023-03-29T22:18:56.202Z,6.03
2023-03-29T22:21:27.684Z,6.04
2023-03-29T22:24:01.666Z,6.06
2023-03-29T22:26:34.401Z,6.01
2023-03-29T22:29:04.813Z,5.86
2023-03-29T22:31:32.478Z,5.89
2023-03-29T22:34:01.218Z,5.95
2023-03-29T22:36:37.446Z,5.95
2023-03-29T22:39:07.729Z,5.89
2023-03-29T22:41:34.796Z,5.83
2023-03-29T22:44:02.404Z,5.90
2023-03-29T22:46:30.464Z,5.96
2023-03-29T22:48:58.281Z,5.88
2023-03-29T22:51:25.525Z,5.61
2023-03-29T22:53:54.475Z,5.48
2023-03-29T22:56:22.307Z,5.39
2023-03-29T22:58:50.056Z,4.84
2023-03-29T23:01:17.205Z,4.94
2023-03-29T23:03:44.941Z,4.99
2023-03-29T23:06:12.214Z,5.04
2023-03-29T23:08:39.846Z,5.24
2023-03-29T23:11:07.996Z,5.34
2023-03-29T23:13:35.430Z,5.30
2023-03-29T23:16:03.893Z,4.97
2023-03-29T23:18:35.146Z,5.31
2023-03-29T23:21:02.839Z,5.36
2023-03-29T23:23:30.153Z,5.50
2023-03-29T23:25:57.715Z,5.59
2023-03-29T23:28:27.690Z,5.65
2023-03-29T23:31:18.608Z,5.71
2023-03-29T23:33:46.597Z,5.76
2023-03-29T23:36:15.967Z,5.77
2023-03-29T23:38:45.695Z,5.81
2023-03-29T23:41:13.759Z,5.85
2023-03-29T23:43:44.027Z,5.88
2023-03-29T23:46:14.590Z,5.86
2023-03-29T23:48:49.542Z,5.81
2023-03-29T23:51:19.375Z,5.70
2023-03-29T23:53:50.918Z,5.67
2023-03-29T23:56:18.344Z,5.60
2023-03-29T23:58:45.609Z,5.55
